sensor_id;sensor_type;location;lat;lon;timestamp;temperature;humidity
71047;SHT31;58703;48.978;8.982;2024-03-17T00:00:43;4.84;99.99
71047;SHT31;58703;48.978;8.982;2024-03-17T00:03:08;4.84;99.99
71047;SHT31;58703;48.978;8.982;2024-03-17T00:05:37;4.92;99.99
71047;SHT31;58703;48.978;8.982;2024-03-17T00:08:04;4.98;99.99
71047;SHT31;58703;48.978;8.982;2024-03-17T00:10:33;4.96;99.99
71047;SHT31;58703;48.978;8.982;2024-03-17T00:13:00;4.91;99.99
71047;SHT31;58703;48.978;8.982;2024-03-17T00:15:26;4.82;99.99
71047;SHT31;58703;48.978;8.982;2024-03-17T00:17:51;4.69;99.99
71047;SHT31;58703;48.978;8.982;2024-03-17T00:20:17;4.60;99.99
71047;SHT31;58703;48.978;8.982;2024-03-17T00:22:49;4.53;99.99
71047;SHT31;58703;48.978;8.982;2024-03-17T00:25:16;4.56;99.99
71047;SHT31;58703;48.978;8.982;2024-03-17T00:27:43;4.46;99.99
71047;SHT31;58703;48.978;8.982;2024-03-17T00:30:11;4.48;99.99
71047;SHT31;58703;48.978;8.982;2024-03-17T00:32:41;4.44;99.99
71047;SHT31;58703;48.978;8.982;2024-03-17T00:35:08;4.38;99.99
71047;SHT31;58703;48.978;8.982;2024-03-17T00:37:34;4.32;99.99
71047;SHT31;58703;48.978;8.982;2024-03-17T00:40:01;4.30;99.99
71047;SHT31;58703;48.978;8.982;2024-03-17T00:42:26;4.29;99.99
71047;SHT31;58703;48.978;8.982;2024-03-17T00:44:52;4.34;99.99
71047;SHT31;58703;48.978;8.982;2024-03-17T00:47:17;4.34;99.99
71047;SHT31;58703;48.978;8.982;2024-03-17T00:49:43;4.24;99.99
71047;SHT31;58703;48.978;8.982;2024-03-17T00:52:08;4.24;99.99
71047;SHT31;58703;48.978;8.982;2024-03-17T00:54:35;4.13;99.99
71047;SHT31;58703;48.978;8.982;2024-03-17T00:57:00;4.40;99.99
71047;SHT31;58703;48.978;8.982;2024-03-17T00:59:27;4.16;99.99
71047;SHT31;58703;48.978;8.982;2024-03-17T01:01:52;4.14;99.99
71047;SHT31;58703;48.978;8.982;2024-03-17T01:04:18;4.03;99.99
71047;SHT31;58703;48.978;8.982;2024-03-17T01:06:43;3.95;99.99
71047;SHT31;58703;48.978;8.982;2024-03-17T01:09:09;3.99;99.99
71047;SHT31;58703;48.978;8.982;2024-03-17T01:11:34;3.97;99.99
71047;SHT31;58703;48.978;8.982;2024-03-17T01:14:00;3.87;99.99
71047;SHT31;58703;48.978;8.982;2024-03-17T01:16:26;3.97;99.99
71047;SHT31;58703;48.978;8.982;2024-03-17T01:18:52;4.05;99.99
71047;SHT31;58703;48.978;8.982;2024-03-17T01:21:19;4.11;99.99
71047;SHT31;58703;48.978;8.982;2024-03-17T01:23:45;3.89;99.99
71047;SHT31;58703;48.978;8.982;2024-03-17T01:26:10;3.95;99.99
71047;SHT31;58703;48.978;8.982;2024-03-17T01:28:36;3.82;99.99
71047;SHT31;58703;48.978;8.982;2024-03-17T01:31:06;3.63;99.99
71047;SHT31;58703;48.978;8.982;2024-03-17T01:33:31;3.56;99.99
71047;SHT31;58703;48.978;8.982;2024-03-17T01:35:57;3.52;99.99
71047;SHT31;58703;48.978;8.982;2024-03-17T01:38:23;3.46;99.99
71047;SHT31;58703;48.978;8.982;2024-03-17T01:40:48;3.35;99.99
71047;SHT31;58703;48.978;8.982;2024-03-17T01:43:14;3.50;99.99
71047;SHT31;58703;48.978;8.982;2024-03-17T01:45:39;3.42;99.99
71047;SHT31;58703;48.978;8.982;2024-03-17T01:48:12;3.48;99.99
71047;SHT31;58703;48.978;8.982;2024-03-17T01:50:39;3.41;99.99
71047;SHT31;58703;48.978;8.982;2024-03-17T01:53:05;3.42;99.99
71047;SHT31;58703;48.978;8.982;2024-03-17T01:55:33;3.31;99.99
71047;SHT31;58703;48.978;8.982;2024-03-17T01:58:00;3.21;99.99
71047;SHT31;58703;48.978;8.982;2024-03-17T02:00:25;3.15;99.99
71047;SHT31;58703;48.978;8.982;2024-03-17T02:02:52;3.15;99.99
71047;SHT31;58703;48.978;8.982;2024-03-17T02:05:17;3.18;99.99
71047;SHT31;58703;48.978;8.982;2024-03-17T02:07:43;3.17;99.99
71047;SHT31;58703;48.978;8.982;2024-03-17T02:10:09;3.32;99.99
71047;SHT31;58703;48.978;8.982;2024-03-17T02:12:35;3.46;99.99
71047;SHT31;58703;48.978;8.982;2024-03-17T02:15:01;3.39;99.99
71047;SHT31;58703;48.978;8.982;2024-03-17T02:17:31;3.28;99.99
71047;SHT31;58703;48.978;8.982;2024-03-17T02:19:57;3.36;99.99
71047;SHT31;58703;48.978;8.982;2024-03-17T02:22:22;3.39;99.99
71047;SHT31;58703;48.978;8.982;2024-03-17T02:24:48;3.44;99.99
71047;SHT31;58703;48.978;8.982;2024-03-17T02:27:13;3.44;99.99
71047;SHT31;58703;48.978;8.982;2024-03-17T02:29:39;3.36;99.99
71047;SHT31;58703;48.978;8.982;2024-03-17T02:32:08;3.44;99.99
71047;SHT31;58703;48.978;8.982;2024-03-17T02:34:37;3.38;99.99
71047;SHT31;58703;48.978;8.982;2024-03-17T02:37:04;3.30;99.99
71047;SHT31;58703;48.978;8.982;2024-03-17T02:39:31;3.48;99.99
71047;SHT31;58703;48.978;8.982;2024-03-17T02:41:57;3.69;99.99
71047;SHT31;58703;48.978;8.982;2024-03-17T02:44:22;3.68;99.99
71047;SHT31;58703;48.978;8.982;2024-03-17T02:46:48;3.72;99.99
71047;SHT31;58703;48.978;8.982;2024-03-17T02:49:13;3.95;99.99
71047;SHT31;58703;48.978;8.982;2024-03-17T02:51:39;4.05;99.99
71047;SHT31;58703;48.978;8.982;2024-03-17T02:54:05;4.03;99.99
71047;SHT31;58703;48.978;8.982;2024-03-17T02:56:31;4.05;99.99
71047;SHT31;58703;48.978;8.982;2024-03-17T02:58:57;4.17;99.99
71047;SHT31;58703;48.978;8.982;2024-03-17T03:01:22;4.06;99.99
71047;SHT31;58703;48.978;8.982;2024-03-17T03:03:48;4.02;99.99
71047;SHT31;58703;48.978;8.982;2024-03-17T03:06:16;4.11;99.99
71047;SHT31;58703;48.978;8.982;2024-03-17T03:08:45;4.11;99.99
71047;SHT31;58703;48.978;8.982;2024-03-17T03:11:15;4.13;99.99
71047;SHT31;58703;48.978;8.982;2024-03-17T03:13:42;4.26;99.99
71047;SHT31;58703;48.978;8.982;2024-03-17T03:16:12;4.33;99.99
71047;SHT31;58703;48.978;8.982;2024-03-17T03:18:39;4.37;99.99
71047;SHT31;58703;48.978;8.982;2024-03-17T03:21:06;4.40;99.99
71047;SHT31;58703;48.978;8.982;2024-03-17T03:23:32;4.37;99.99
71047;SHT31;58703;48.978;8.982;2024-03-17T03:26:00;4.47;99.99
71047;SHT31;58703;48.978;8.982;2024-03-17T03:28:29;4.56;99.99
71047;SHT31;58703;48.978;8.982;2024-03-17T03:33:26;4.65;99.99
71047;SHT31;58703;48.978;8.982;2024-03-17T03:35:52;4.71;99.99
71047;SHT31;58703;48.978;8.982;2024-03-17T03:38:18;4.81;99.99
71047;SHT31;58703;48.978;8.982;2024-03-17T03:40:45;4.84;99.99
71047;SHT31;58703;48.978;8.982;2024-03-17T03:43:11;4.88;99.99
71047;SHT31;58703;48.978;8.982;2024-03-17T03:45:37;5.11;99.99
71047;SHT31;58703;48.978;8.982;2024-03-17T03:48:03;5.18;99.99
71047;SHT31;58703;48.978;8.982;2024-03-17T03:50:29;5.16;99.99
71047;SHT31;58703;48.978;8.982;2024-03-17T03:52:55;5.08;99.99
71047;SHT31;58703;48.978;8.982;2024-03-17T03:55:21;5.13;99.99
71047;SHT31;58703;48.978;8.982;2024-03-17T03:57:47;5.22;99.99
71047;SHT31;58703;48.978;8.982;2024-03-17T04:00:18;5.04;99.99
71047;SHT31;58703;48.978;8.982;2024-03-17T04:02:51;5.11;99.99
71047;SHT31;58703;48.978;8.982;2024-03-17T04:05:18;5.12;99.99
71047;SHT31;58703;48.978;8.982;2024-03-17T04:07:45;5.30;99.99
71047;SHT31;58703;48.978;8.982;2024-03-17T04:10:12;5.26;99.99
71047;SHT31;58703;48.978;8.982;2024-03-17T04:12:38;5.39;99.99
71047;SHT31;58703;48.978;8.982;2024-03-17T04:15:04;5.35;99.99
71047;SHT31;58703;48.978;8.982;2024-03-17T04:17:32;5.39;99.99
71047;SHT31;58703;48.978;8.982;2024-03-17T04:19:59;5.46;99.99
71047;SHT31;58703;48.978;8.982;2024-03-17T04:22:24;5.44;99.99
71047;SHT31;58703;48.978;8.982;2024-03-17T04:24:51;5.42;99.99
71047;SHT31;58703;48.978;8.982;2024-03-17T04:27:25;5.46;99.99
71047;SHT31;58703;48.978;8.982;2024-03-17T04:29:54;5.39;99.99
71047;SHT31;58703;48.978;8.982;2024-03-17T04:32:21;5.40;99.99
71047;SHT31;58703;48.978;8.982;2024-03-17T04:34:47;5.36;99.99
71047;SHT31;58703;48.978;8.982;2024-03-17T04:37:13;5.23;99.99
71047;SHT31;58703;48.978;8.982;2024-03-17T04:39:43;5.18;99.99
71047;SHT31;58703;48.978;8.982;2024-03-17T04:42:13;5.22;99.99
71047;SHT31;58703;48.978;8.982;2024-03-17T04:44:45;5.18;99.99
71047;SHT31;58703;48.978;8.982;2024-03-17T04:47:11;5.25;99.99
71047;SHT31;58703;48.978;8.982;2024-03-17T04:49:43;5.30;99.99
71047;SHT31;58703;48.978;8.982;2024-03-17T04:52:10;5.28;99.99
71047;SHT31;58703;48.978;8.982;2024-03-17T04:54:35;5.35;99.99
71047;SHT31;58703;48.978;8.982;2024-03-17T04:57:02;5.32;99.99
71047;SHT31;58703;48.978;8.982;2024-03-17T04:59:28;5.29;99.99
71047;SHT31;58703;48.978;8.982;2024-03-17T05:01:54;5.23;99.99
71047;SHT31;58703;48.978;8.982;2024-03-17T05:04:20;5.19;99.99
71047;SHT31;58703;48.978;8.982;2024-03-17T05:06:46;5.23;99.99
71047;SHT31;58703;48.978;8.982;2024-03-17T05:09:13;5.26;99.99
71047;SHT31;58703;48.978;8.982;2024-03-17T05:11:39;5.33;99.99
71047;SHT31;58703;48.978;8.982;2024-03-17T05:14:05;5.33;99.99
71047;SHT31;58703;48.978;8.982;2024-03-17T05:16:31;5.33;99.99
71047;SHT31;58703;48.978;8.982;2024-03-17T05:18:57;5.35;99.99
71047;SHT31;58703;48.978;8.982;2024-03-17T05:21:22;5.35;99.99
71047;SHT31;58703;48.978;8.982;2024-03-17T05:23:49;5.38;99.99
71047;SHT31;58703;48.978;8.982;2024-03-17T05:26:15;5.44;99.99
71047;SHT31;58703;48.978;8.982;2024-03-17T05:28:41;5.46;99.99
71047;SHT31;58703;48.978;8.982;2024-03-17T05:31:06;5.44;99.99
71047;SHT31;58703;48.978;8.982;2024-03-17T05:33:32;5.53;99.99
71047;SHT31;58703;48.978;8.982;2024-03-17T05:35:59;5.57;99.99
71047;SHT31;58703;48.978;8.982;2024-03-17T05:38:26;5.57;99.99
71047;SHT31;58703;48.978;8.982;2024-03-17T05:41:00;5.60;99.99
71047;SHT31;58703;48.978;8.982;2024-03-17T05:43:31;5.63;99.99
71047;SHT31;58703;48.978;8.982;2024-03-17T05:45:59;5.69;99.99
71047;SHT31;58703;48.978;8.982;2024-03-17T05:48:27;5.70;99.99
71047;SHT31;58703;48.978;8.982;2024-03-17T05:50:53;5.66;99.99
71047;SHT31;58703;48.978;8.982;2024-03-17T05:53:19;5.64;99.99
71047;SHT31;58703;48.978;8.982;2024-03-17T05:55:45;5.75;99.99
71047;SHT31;58703;48.978;8.982;2024-03-17T05:58:11;5.63;99.99
71047;SHT31;58703;48.978;8.982;2024-03-17T06:00:37;5.64;99.99
71047;SHT31;58703;48.978;8.982;2024-03-17T06:03:04;5.75;99.99
71047;SHT31;58703;48.978;8.982;2024-03-17T06:05:38;5.70;99.99
71047;SHT31;58703;48.978;8.982;2024-03-17T06:08:06;5.83;99.99
71047;SHT31;58703;48.978;8.982;2024-03-17T06:10:35;5.78;99.99
71047;SHT31;58703;48.978;8.982;2024-03-17T06:13:02;5.77;99.99
71047;SHT31;58703;48.978;8.982;2024-03-17T06:15:27;5.73;99.99
71047;SHT31;58703;48.978;8.982;2024-03-17T06:17:53;5.70;99.99
71047;SHT31;58703;48.978;8.982;2024-03-17T06:20:23;5.63;99.99
71047;SHT31;58703;48.978;8.982;2024-03-17T06:22:50;5.69;99.99
71047;SHT31;58703;48.978;8.982;2024-03-17T06:25:16;5.73;99.99
71047;SHT31;58703;48.978;8.982;2024-03-17T06:27:42;5.75;99.99
71047;SHT31;58703;48.978;8.982;2024-03-17T06:30:14;5.81;99.99
71047;SHT31;58703;48.978;8.982;2024-03-17T06:32:41;5.83;99.99
71047;SHT31;58703;48.978;8.982;2024-03-17T06:35:07;5.97;99.99
71047;SHT31;58703;48.978;8.982;2024-03-17T06:37:34;5.98;99.99
71047;SHT31;58703;48.978;8.982;2024-03-17T06:40:01;5.97;99.99
71047;SHT31;58703;48.978;8.982;2024-03-17T06:42:29;5.95;99.99
71047;SHT31;58703;48.978;8.982;2024-03-17T06:44:55;5.84;99.99
71047;SHT31;58703;48.978;8.982;2024-03-17T06:47:21;6.00;99.99
71047;SHT31;58703;48.978;8.982;2024-03-17T06:49:47;5.93;99.99
71047;SHT31;58703;48.978;8.982;2024-03-17T06:52:12;6.04;99.99
71047;SHT31;58703;48.978;8.982;2024-03-17T06:54:38;6.15;99.99
71047;SHT31;58703;48.978;8.982;2024-03-17T06:57:05;6.11;99.99
71047;SHT31;58703;48.978;8.982;2024-03-17T06:59:34;6.00;99.99
71047;SHT31;58703;48.978;8.982;2024-03-17T07:02:00;6.15;99.99
71047;SHT31;58703;48.978;8.982;2024-03-17T07:04:26;6.04;99.99
71047;SHT31;58703;48.978;8.982;2024-03-17T07:06:52;6.17;99.99
71047;SHT31;58703;48.978;8.982;2024-03-17T07:09:17;6.26;99.99
71047;SHT31;58703;48.978;8.982;2024-03-17T07:11:43;6.31;99.99
71047;SHT31;58703;48.978;8.982;2024-03-17T07:14:10;6.42;99.99
71047;SHT31;58703;48.978;8.982;2024-03-17T07:16:36;6.50;99.99
71047;SHT31;58703;48.978;8.982;2024-03-17T07:19:02;6.46;99.99
71047;SHT31;58703;48.978;8.982;2024-03-17T07:21:28;6.56;99.99
71047;SHT31;58703;48.978;8.982;2024-03-17T07:23:54;6.55;99.99
71047;SHT31;58703;48.978;8.982;2024-03-17T07:26:19;6.66;99.99
71047;SHT31;58703;48.978;8.982;2024-03-17T07:28:45;6.69;99.99
71047;SHT31;58703;48.978;8.982;2024-03-17T07:31:11;6.52;99.99
71047;SHT31;58703;48.978;8.982;2024-03-17T07:33:37;6.79;99.99
71047;SHT31;58703;48.978;8.982;2024-03-17T07:36:03;6.69;99.99
71047;SHT31;58703;48.978;8.982;2024-03-17T07:38:31;6.83;99.99
71047;SHT31;58703;48.978;8.982;2024-03-17T07:41:03;6.83;99.99
71047;SHT31;58703;48.978;8.982;2024-03-17T07:43:37;6.73;99.99
71047;SHT31;58703;48.978;8.982;2024-03-17T07:46:05;7.07;99.99
71047;SHT31;58703;48.978;8.982;2024-03-17T07:48:35;6.95;99.99
71047;SHT31;58703;48.978;8.982;2024-03-17T07:51:04;7.18;99.99
71047;SHT31;58703;48.978;8.982;2024-03-17T07:53:31;7.37;99.99
71047;SHT31;58703;48.978;8.982;2024-03-17T07:56:00;7.00;99.99
71047;SHT31;58703;48.978;8.982;2024-03-17T07:58:27;7.24;99.99
71047;SHT31;58703;48.978;8.982;2024-03-17T08:00:57;7.37;99.99
71047;SHT31;58703;48.978;8.982;2024-03-17T08:03:26;7.41;99.99
71047;SHT31;58703;48.978;8.982;2024-03-17T08:05:51;7.54;99.99
71047;SHT31;58703;48.978;8.982;2024-03-17T08:08:18;7.57;99.99
71047;SHT31;58703;48.978;8.982;2024-03-17T08:10:44;7.21;99.99
71047;SHT31;58703;48.978;8.982;2024-03-17T08:13:11;7.55;99.99
71047;SHT31;58703;48.978;8.982;2024-03-17T08:15:38;7.38;99.99
71047;SHT31;58703;48.978;8.982;2024-03-17T08:18:04;7.78;99.99
71047;SHT31;58703;48.978;8.982;2024-03-17T08:20:37;7.62;99.99
71047;SHT31;58703;48.978;8.982;2024-03-17T08:23:03;7.52;99.99
71047;SHT31;58703;48.978;8.982;2024-03-17T08:25:29;7.54;99.99
71047;SHT31;58703;48.978;8.982;2024-03-17T08:27:54;7.50;99.99
71047;SHT31;58703;48.978;8.982;2024-03-17T08:30:20;7.88;99.99
71047;SHT31;58703;48.978;8.982;2024-03-17T08:32:46;7.55;99.99
71047;SHT31;58703;48.978;8.982;2024-03-17T08:35:11;7.35;99.99
71047;SHT31;58703;48.978;8.982;2024-03-17T08:37:37;7.40;99.99
71047;SHT31;58703;48.978;8.982;2024-03-17T08:40:03;7.91;99.99
71047;SHT31;58703;48.978;8.982;2024-03-17T08:42:32;8.16;99.99
71047;SHT31;58703;48.978;8.982;2024-03-17T08:44:58;8.13;99.99
71047;SHT31;58703;48.978;8.982;2024-03-17T08:47:23;7.93;99.99
71047;SHT31;58703;48.978;8.982;2024-03-17T08:49:53;7.99;99.96
71047;SHT31;58703;48.978;8.982;2024-03-17T08:52:18;8.13;99.99
71047;SHT31;58703;48.978;8.982;2024-03-17T08:54:47;8.25;99.99
71047;SHT31;58703;48.978;8.982;2024-03-17T08:57:13;8.49;99.84
71047;SHT31;58703;48.978;8.982;2024-03-17T08:59:39;8.53;98.15
71047;SHT31;58703;48.978;8.982;2024-03-17T09:02:05;8.50;98.14
71047;SHT31;58703;48.978;8.982;2024-03-17T09:04:34;8.65;97.45
71047;SHT31;58703;48.978;8.982;2024-03-17T09:07:00;8.95;98.19
71047;SHT31;58703;48.978;8.982;2024-03-17T09:09:29;8.88;97.57
71047;SHT31;58703;48.978;8.982;2024-03-17T09:11:55;9.00;98.78
71047;SHT31;58703;48.978;8.982;2024-03-17T09:14:21;9.22;96.53
71047;SHT31;58703;48.978;8.982;2024-03-17T09:16:48;9.53;96.85
71047;SHT31;58703;48.978;8.982;2024-03-17T09:19:13;9.58;95.14
71047;SHT31;58703;48.978;8.982;2024-03-17T09:21:39;10.14;96.20
71047;SHT31;58703;48.978;8.982;2024-03-17T09:24:08;10.09;97.31
71047;SHT31;58703;48.978;8.982;2024-03-17T09:26:34;10.52;96.66
71047;SHT31;58703;48.978;8.982;2024-03-17T09:29:03;10.60;92.84
71047;SHT31;58703;48.978;8.982;2024-03-17T09:31:29;9.97;93.64
71047;SHT31;58703;48.978;8.982;2024-03-17T09:33:56;10.30;94.22
71047;SHT31;58703;48.978;8.982;2024-03-17T09:36:22;9.97;94.75
71047;SHT31;58703;48.978;8.982;2024-03-17T09:38:48;10.09;94.46
71047;SHT31;58703;48.978;8.982;2024-03-17T09:41:23;10.52;95.62
71047;SHT31;58703;48.978;8.982;2024-03-17T09:43:54;10.92;93.85
71047;SHT31;58703;48.978;8.982;2024-03-17T09:46:22;10.69;92.90
71047;SHT31;58703;48.978;8.982;2024-03-17T09:48:48;10.47;93.36
71047;SHT31;58703;48.978;8.982;2024-03-17T09:51:22;10.62;92.34
71047;SHT31;58703;48.978;8.982;2024-03-17T09:53:49;10.71;92.42
71047;SHT31;58703;48.978;8.982;2024-03-17T09:56:16;10.73;93.82
71047;SHT31;58703;48.978;8.982;2024-03-17T09:58:48;11.30;91.12
71047;SHT31;58703;48.978;8.982;2024-03-17T10:01:15;11.59;90.57
71047;SHT31;58703;48.978;8.982;2024-03-17T10:03:51;11.90;90.31
71047;SHT31;58703;48.978;8.982;2024-03-17T10:06:18;12.52;87.32
71047;SHT31;58703;48.978;8.982;2024-03-17T10:08:52;13.14;87.83
71047;SHT31;58703;48.978;8.982;2024-03-17T10:11:20;13.04;84.63
71047;SHT31;58703;48.978;8.982;2024-03-17T10:13:58;13.20;85.75
71047;SHT31;58703;48.978;8.982;2024-03-17T10:16:25;13.46;87.47
71047;SHT31;58703;48.978;8.982;2024-03-17T10:21:32;13.28;84.66
71047;SHT31;58703;48.978;8.982;2024-03-17T10:24:06;13.02;83.92
71047;SHT31;58703;48.978;8.982;2024-03-17T10:26:36;13.11;84.60
71047;SHT31;58703;48.978;8.982;2024-03-17T10:29:02;13.44;84.25
71047;SHT31;58703;48.978;8.982;2024-03-17T10:31:29;13.14;83.74
71047;SHT31;58703;48.978;8.982;2024-03-17T10:34:02;12.97;86.63
71047;SHT31;58703;48.978;8.982;2024-03-17T10:36:27;13.50;82.69
71047;SHT31;58703;48.978;8.982;2024-03-17T10:38:53;13.86;83.67
71047;SHT31;58703;48.978;8.982;2024-03-17T10:41:21;14.26;81.14
71047;SHT31;58703;48.978;8.982;2024-03-17T10:43:47;13.72;79.81
71047;SHT31;58703;48.978;8.982;2024-03-17T10:46:14;14.04;81.56
71047;SHT31;58703;48.978;8.982;2024-03-17T10:48:41;14.56;80.34
71047;SHT31;58703;48.978;8.982;2024-03-17T10:51:11;15.45;79.86
71047;SHT31;58703;48.978;8.982;2024-03-17T10:53:42;14.90;75.80
71047;SHT31;58703;48.978;8.982;2024-03-17T10:56:10;15.36;78.58
71047;SHT31;58703;48.978;8.982;2024-03-17T10:58:44;15.86;74.99
71047;SHT31;58703;48.978;8.982;2024-03-17T11:01:14;15.61;72.02
71047;SHT31;58703;48.978;8.982;2024-03-17T11:03:41;15.65;73.13
71047;SHT31;58703;48.978;8.982;2024-03-17T11:06:07;15.72;74.75
71047;SHT31;58703;48.978;8.982;2024-03-17T11:08:34;15.44;72.76
71047;SHT31;58703;48.978;8.982;2024-03-17T11:11:01;15.49;74.79
71047;SHT31;58703;48.978;8.982;2024-03-17T11:13:30;16.10;73.43
71047;SHT31;58703;48.978;8.982;2024-03-17T11:15:57;16.21;67.75
71047;SHT31;58703;48.978;8.982;2024-03-17T11:23:42;16.53;65.27
71047;SHT31;58703;48.978;8.982;2024-03-17T11:26:08;16.40;61.22
71047;SHT31;58703;48.978;8.982;2024-03-17T11:31:35;16.02;66.86
71047;SHT31;58703;48.978;8.982;2024-03-17T11:34:03;16.72;67.45
71047;SHT31;58703;48.978;8.982;2024-03-17T11:36:33;17.40;65.29
71047;SHT31;58703;48.978;8.982;2024-03-17T11:39:09;16.71;60.00
71047;SHT31;58703;48.978;8.982;2024-03-17T11:41:55;17.11;59.72
71047;SHT31;58703;48.978;8.982;2024-03-17T11:51:50;16.14;60.12
71047;SHT31;58703;48.978;8.982;2024-03-17T11:54:17;16.20;61.84
71047;SHT31;58703;48.978;8.982;2024-03-17T11:56:54;15.78;59.81
71047;SHT31;58703;48.978;8.982;2024-03-17T11:59:21;15.58;59.41
71047;SHT31;58703;48.978;8.982;2024-03-17T12:01:50;16.47;59.05
71047;SHT31;58703;48.978;8.982;2024-03-17T12:04:18;16.46;60.31
71047;SHT31;58703;48.978;8.982;2024-03-17T12:06:58;16.94;59.35
71047;SHT31;58703;48.978;8.982;2024-03-17T12:09:25;16.41;59.44
71047;SHT31;58703;48.978;8.982;2024-03-17T12:14:25;15.62;63.70
71047;SHT31;58703;48.978;8.982;2024-03-17T12:17:01;16.34;63.82
71047;SHT31;58703;48.978;8.982;2024-03-17T12:19:27;16.60;60.49
71047;SHT31;58703;48.978;8.982;2024-03-17T12:21:55;16.02;61.13
71047;SHT31;58703;48.978;8.982;2024-03-17T12:24:23;15.68;64.04
71047;SHT31;58703;48.978;8.982;2024-03-17T12:26:50;16.84;67.35
71047;SHT31;58703;48.978;8.982;2024-03-17T12:29:33;17.12;65.34
71047;SHT31;58703;48.978;8.982;2024-03-17T12:32:05;16.33;61.23
71047;SHT31;58703;48.978;8.982;2024-03-17T12:34:32;16.57;64.23
71047;SHT31;58703;48.978;8.982;2024-03-17T12:37:00;17.22;64.05
71047;SHT31;58703;48.978;8.982;2024-03-17T12:39:31;17.04;63.23
71047;SHT31;58703;48.978;8.982;2024-03-17T12:42:03;16.77;62.38
71047;SHT31;58703;48.978;8.982;2024-03-17T12:44:38;16.96;67.69
71047;SHT31;58703;48.978;8.982;2024-03-17T12:47:08;16.57;62.92
71047;SHT31;58703;48.978;8.982;2024-03-17T12:50:08;15.63;63.03
71047;SHT31;58703;48.978;8.982;2024-03-17T12:52:32;15.73;64.18
71047;SHT31;58703;48.978;8.982;2024-03-17T12:54:58;16.26;67.38
71047;SHT31;58703;48.978;8.982;2024-03-17T12:57:44;15.75;63.94
71047;SHT31;58703;48.978;8.982;2024-03-17T13:00:28;15.18;64.71
71047;SHT31;58703;48.978;8.982;2024-03-17T13:02:57;16.09;67.32
71047;SHT31;58703;48.978;8.982;2024-03-17T13:05:23;16.10;64.42
71047;SHT31;58703;48.978;8.982;2024-03-17T13:07:50;16.81;65.20
71047;SHT31;58703;48.978;8.982;2024-03-17T13:10:18;16.78;62.79
71047;SHT31;58703;48.978;8.982;2024-03-17T13:12:48;16.92;64.86
71047;SHT31;58703;48.978;8.982;2024-03-17T13:15:17;16.84;61.98
71047;SHT31;58703;48.978;8.982;2024-03-17T13:17:44;17.18;62.79
71047;SHT31;58703;48.978;8.982;2024-03-17T13:20:14;16.48;63.66
71047;SHT31;58703;48.978;8.982;2024-03-17T13:22:44;16.50;61.47
71047;SHT31;58703;48.978;8.982;2024-03-17T13:25:21;16.72;64.76
71047;SHT31;58703;48.978;8.982;2024-03-17T13:27:49;16.03;63.25
71047;SHT31;58703;48.978;8.982;2024-03-17T13:30:16;15.96;63.28
71047;SHT31;58703;48.978;8.982;2024-03-17T13:32:42;16.31;63.98
71047;SHT31;58703;48.978;8.982;2024-03-17T13:35:15;16.58;62.59
71047;SHT31;58703;48.978;8.982;2024-03-17T13:37:42;16.37;63.90
71047;SHT31;58703;48.978;8.982;2024-03-17T13:40:08;16.03;61.68
71047;SHT31;58703;48.978;8.982;2024-03-17T13:42:35;16.39;64.03
71047;SHT31;58703;48.978;8.982;2024-03-17T13:45:01;16.60;65.20
71047;SHT31;58703;48.978;8.982;2024-03-17T13:47:28;17.08;61.01
71047;SHT31;58703;48.978;8.982;2024-03-17T13:49:53;16.13;62.60
71047;SHT31;58703;48.978;8.982;2024-03-17T13:52:19;16.00;62.78
71047;SHT31;58703;48.978;8.982;2024-03-17T13:54:45;16.78;60.28
71047;SHT31;58703;48.978;8.982;2024-03-17T13:57:11;16.77;60.16
71047;SHT31;58703;48.978;8.982;2024-03-17T13:59:37;16.82;61.12
71047;SHT31;58703;48.978;8.982;2024-03-17T14:02:03;16.63;62.15
71047;SHT31;58703;48.978;8.982;2024-03-17T14:04:30;17.40;62.67
71047;SHT31;58703;48.978;8.982;2024-03-17T14:06:56;17.08;60.04
71047;SHT31;58703;48.978;8.982;2024-03-17T14:09:22;16.36;61.84
71047;SHT31;58703;48.978;8.982;2024-03-17T14:11:48;16.36;62.62
71047;SHT31;58703;48.978;8.982;2024-03-17T14:14:14;15.83;63.20
71047;SHT31;58703;48.978;8.982;2024-03-17T14:16:40;16.29;63.64
71047;SHT31;58703;48.978;8.982;2024-03-17T14:19:08;16.96;63.93
71047;SHT31;58703;48.978;8.982;2024-03-17T14:21:33;17.29;61.72
71047;SHT31;58703;48.978;8.982;2024-03-17T14:23:59;16.95;62.45
71047;SHT31;58703;48.978;8.982;2024-03-17T14:26:26;16.85;61.97
71047;SHT31;58703;48.978;8.982;2024-03-17T14:28:52;17.39;60.96
71047;SHT31;58703;48.978;8.982;2024-03-17T14:31:20;19.27;60.23
71047;SHT31;58703;48.978;8.982;2024-03-17T14:33:45;19.22;57.73
71047;SHT31;58703;48.978;8.982;2024-03-17T14:36:11;18.47;58.65
71047;SHT31;58703;48.978;8.982;2024-03-17T14:38:37;17.69;58.65
71047;SHT31;58703;48.978;8.982;2024-03-17T14:41:03;17.70;60.82
71047;SHT31;58703;48.978;8.982;2024-03-17T14:43:30;17.82;59.88
71047;SHT31;58703;48.978;8.982;2024-03-17T14:45:56;18.14;60.14
71047;SHT31;58703;48.978;8.982;2024-03-17T14:48:22;18.41;59.09
71047;SHT31;58703;48.978;8.982;2024-03-17T14:50:49;18.04;58.37
71047;SHT31;58703;48.978;8.982;2024-03-17T14:53:14;19.16;57.13
71047;SHT31;58703;48.978;8.982;2024-03-17T14:55:42;19.39;57.96
71047;SHT31;58703;48.978;8.982;2024-03-17T14:58:09;18.07;60.53
71047;SHT31;58703;48.978;8.982;2024-03-17T15:00:35;17.83;61.02
71047;SHT31;58703;48.978;8.982;2024-03-17T15:03:01;18.31;60.65
71047;SHT31;58703;48.978;8.982;2024-03-17T15:05:26;18.61;59.60
71047;SHT31;58703;48.978;8.982;2024-03-17T15:07:52;18.64;57.91
71047;SHT31;58703;48.978;8.982;2024-03-17T15:10:19;17.38;59.61
71047;SHT31;58703;48.978;8.982;2024-03-17T15:12:50;17.97;58.84
71047;SHT31;58703;48.978;8.982;2024-03-17T15:15:16;17.53;60.31
71047;SHT31;58703;48.978;8.982;2024-03-17T15:17:42;17.59;63.07
71047;SHT31;58703;48.978;8.982;2024-03-17T15:20:13;17.83;60.44
71047;SHT31;58703;48.978;8.982;2024-03-17T15:22:50;17.97;60.35
71047;SHT31;58703;48.978;8.982;2024-03-17T15:25:17;18.04;58.32
71047;SHT31;58703;48.978;8.982;2024-03-17T15:27:43;17.72;60.18
71047;SHT31;58703;48.978;8.982;2024-03-17T15:30:14;17.00;61.82
71047;SHT31;58703;48.978;8.982;2024-03-17T15:32:41;16.94;62.20
71047;SHT31;58703;48.978;8.982;2024-03-17T15:35:10;16.94;62.40
71047;SHT31;58703;48.978;8.982;2024-03-17T15:37:35;17.96;61.93
71047;SHT31;58703;48.978;8.982;2024-03-17T15:40:02;18.30;59.70
71047;SHT31;58703;48.978;8.982;2024-03-17T15:42:28;17.77;60.97
71047;SHT31;58703;48.978;8.982;2024-03-17T15:44:53;18.27;60.16
71047;SHT31;58703;48.978;8.982;2024-03-17T15:47:19;16.82;61.18
71047;SHT31;58703;48.978;8.982;2024-03-17T15:49:45;16.17;63.59
71047;SHT31;58703;48.978;8.982;2024-03-17T15:52:11;15.86;64.83
71047;SHT31;58703;48.978;8.982;2024-03-17T15:54:37;15.72;66.45
71047;SHT31;58703;48.978;8.982;2024-03-17T15:57:03;14.94;66.57
71047;SHT31;58703;48.978;8.982;2024-03-17T15:59:28;14.55;67.72
71047;SHT31;58703;48.978;8.982;2024-03-17T16:01:54;14.69;68.33
71047;SHT31;58703;48.978;8.982;2024-03-17T16:04:22;14.28;69.21